Terminal Aerodrome Forecast
Issued by NWS

Home | Current Version | Previous Version | Text Only | Print | Product List | Glossary On
Versions: 1 2 3 4 5 6 7 8 9 10 11 12 13 14 15 16 17 18 19 20
229
FTUS43 KGRR 230838 AAA
TAFLAN
TAF AMD
KLAN 230838Z 2309/2406 22010KT P6SM VCSH BKN035
     FM231300 24012G21KT 2SM -RASN BR OVC012
     FM231800 28015G22KT 1 1/2SM -SHSN BR OVC009
     FM232200 30014G21KT 3SM -SHSN BR OVC015
     FM240300 30012KT 6SM -SHSN BR OVC025=

USA.gov is the U.S. government's official web portal to all federal, state and local government web resources and services.